sensor_id;sensor_type;location;lat;lon;timestamp;P1;durP1;ratioP1;P2;durP2;ratioP2
787;SDS011;16074;42.708;23.312;2023-11-25T00:01:05;8.73;;;6.07;;
787;SDS011;16074;42.708;23.312;2023-11-25T00:03:34;8.27;;;4.73;;
787;SDS011;16074;42.708;23.312;2023-11-25T00:06:02;10.07;;;5.60;;
787;SDS011;16074;42.708;23.312;2023-11-25T00:08:31;10.73;;;4.57;;
787;SDS011;16074;42.708;23.312;2023-11-25T00:10:59;7.13;;;3.93;;
787;SDS011;16074;42.708;23.312;2023-11-25T00:13:30;4.90;;;4.50;;
787;SDS011;16074;42.708;23.312;2023-11-25T00:15:59;8.43;;;4.37;;
787;SDS011;16074;42.708;23.312;2023-11-25T00:18:28;5.93;;;4.63;;
787;SDS011;16074;42.708;23.312;2023-11-25T00:20:56;7.60;;;4.80;;
787;SDS011;16074;42.708;23.312;2023-11-25T00:23:25;10.80;;;4.40;;
787;SDS011;16074;42.708;23.312;2023-11-25T00:25:53;6.07;;;4.90;;
787;SDS011;16074;42.708;23.312;2023-11-25T00:28:21;4.57;;;3.70;;
787;SDS011;16074;42.708;23.312;2023-11-25T00:30:49;5.90;;;4.00;;
787;SDS011;16074;42.708;23.312;2023-11-25T00:33:19;5.63;;;4.00;;
787;SDS011;16074;42.708;23.312;2023-11-25T00:35:47;5.77;;;3.13;;
787;SDS011;16074;42.708;23.312;2023-11-25T00:38:17;4.93;;;3.40;;
787;SDS011;16074;42.708;23.312;2023-11-25T00:40:45;4.40;;;3.47;;
787;SDS011;16074;42.708;23.312;2023-11-25T00:43:13;3.70;;;3.30;;
787;SDS011;16074;42.708;23.312;2023-11-25T00:45:42;7.23;;;3.97;;
787;SDS011;16074;42.708;23.312;2023-11-25T00:48:11;6.07;;;3.93;;
787;SDS011;16074;42.708;23.312;2023-11-25T00:50:40;7.80;;;4.40;;
787;SDS011;16074;42.708;23.312;2023-11-25T00:53:09;6.97;;;4.57;;
787;SDS011;16074;42.708;23.312;2023-11-25T00:55:37;4.07;;;3.40;;
787;SDS011;16074;42.708;23.312;2023-11-25T00:58:05;10.37;;;3.80;;
787;SDS011;16074;42.708;23.312;2023-11-25T01:00:34;4.33;;;3.80;;
787;SDS011;16074;42.708;23.312;2023-11-25T01:03:02;12.40;;;5.07;;
787;SDS011;16074;42.708;23.312;2023-11-25T01:05:30;10.00;;;5.30;;
787;SDS011;16074;42.708;23.312;2023-11-25T01:08:00;5.93;;;5.10;;
787;SDS011;16074;42.708;23.312;2023-11-25T01:10:28;7.93;;;6.37;;
787;SDS011;16074;42.708;23.312;2023-11-25T01:12:56;6.50;;;5.90;;
787;SDS011;16074;42.708;23.312;2023-11-25T01:15:24;7.50;;;5.97;;
787;SDS011;16074;42.708;23.312;2023-11-25T01:17:52;8.57;;;5.70;;
787;SDS011;16074;42.708;23.312;2023-11-25T01:20:21;7.70;;;5.87;;
787;SDS011;16074;42.708;23.312;2023-11-25T01:22:50;11.73;;;5.87;;
787;SDS011;16074;42.708;23.312;2023-11-25T01:25:19;5.43;;;4.93;;
787;SDS011;16074;42.708;23.312;2023-11-25T01:27:47;7.13;;;5.23;;
787;SDS011;16074;42.708;23.312;2023-11-25T01:30:17;5.85;;;4.75;;
787;SDS011;16074;42.708;23.312;2023-11-25T01:32:46;8.23;;;4.93;;
787;SDS011;16074;42.708;23.312;2023-11-25T01:35:15;15.35;;;11.55;;
787;SDS011;16074;42.708;23.312;2023-11-25T01:37:43;14.32;;;11.48;;
787;SDS011;16074;42.708;23.312;2023-11-25T01:40:11;20.95;;;15.05;;
787;SDS011;16074;42.708;23.312;2023-11-25T01:42:41;13.15;;;10.02;;
787;SDS011;16074;42.708;23.312;2023-11-25T01:45:09;7.32;;;6.60;;
787;SDS011;16074;42.708;23.312;2023-11-25T01:47:39;6.07;;;3.97;;
787;SDS011;16074;42.708;23.312;2023-11-25T01:50:09;4.10;;;3.75;;
787;SDS011;16074;42.708;23.312;2023-11-25T01:52:38;4.97;;;4.47;;
787;SDS011;16074;42.708;23.312;2023-11-25T01:55:08;3.63;;;3.42;;
787;SDS011;16074;42.708;23.312;2023-11-25T01:57:36;3.50;;;3.20;;
787;SDS011;16074;42.708;23.312;2023-11-25T02:00:07;4.18;;;3.50;;
787;SDS011;16074;42.708;23.312;2023-11-25T02:02:40;3.08;;;2.58;;
787;SDS011;16074;42.708;23.312;2023-11-25T02:05:10;2.85;;;2.63;;
787;SDS011;16074;42.708;23.312;2023-11-25T02:07:39;1.95;;;1.85;;
787;SDS011;16074;42.708;23.312;2023-11-25T02:10:08;2.80;;;2.25;;
787;SDS011;16074;42.708;23.312;2023-11-25T02:12:38;2.67;;;2.00;;
787;SDS011;16074;42.708;23.312;2023-11-25T02:15:09;2.85;;;1.98;;
787;SDS011;16074;42.708;23.312;2023-11-25T02:17:42;1.60;;;1.50;;
787;SDS011;16074;42.708;23.312;2023-11-25T02:20:11;1.90;;;1.80;;
787;SDS011;16074;42.708;23.312;2023-11-25T02:22:41;2.05;;;1.95;;
787;SDS011;16074;42.708;23.312;2023-11-25T02:25:12;1.70;;;1.70;;
787;SDS011;16074;42.708;23.312;2023-11-25T02:27:42;2.05;;;1.85;;
787;SDS011;16074;42.708;23.312;2023-11-25T02:30:10;1.95;;;1.85;;
787;SDS011;16074;42.708;23.312;2023-11-25T02:32:40;2.20;;;2.10;;
787;SDS011;16074;42.708;23.312;2023-11-25T02:35:08;2.25;;;2.15;;
787;SDS011;16074;42.708;23.312;2023-11-25T02:37:38;2.22;;;2.10;;
787;SDS011;16074;42.708;23.312;2023-11-25T02:40:07;2.65;;;2.45;;
787;SDS011;16074;42.708;23.312;2023-11-25T02:42:41;6.95;;;2.63;;
787;SDS011;16074;42.708;23.312;2023-11-25T02:45:14;6.15;;;2.65;;
787;SDS011;16074;42.708;23.312;2023-11-25T02:47:45;2.90;;;2.70;;
787;SDS011;16074;42.708;23.312;2023-11-25T02:50:14;2.90;;;2.70;;
787;SDS011;16074;42.708;23.312;2023-11-25T02:52:43;4.22;;;2.80;;
787;SDS011;16074;42.708;23.312;2023-11-25T02:55:28;3.55;;;3.15;;
787;SDS011;16074;42.708;23.312;2023-11-25T02:57:58;4.05;;;2.40;;
787;SDS011;16074;42.708;23.312;2023-11-25T03:00:27;2.15;;;1.98;;
787;SDS011;16074;42.708;23.312;2023-11-25T03:03:03;2.03;;;1.85;;
787;SDS011;16074;42.708;23.312;2023-11-25T03:05:40;2.40;;;2.30;;
787;SDS011;16074;42.708;23.312;2023-11-25T03:08:13;2.42;;;2.22;;
787;SDS011;16074;42.708;23.312;2023-11-25T03:10:43;2.40;;;2.33;;
787;SDS011;16074;42.708;23.312;2023-11-25T03:13:14;2.10;;;2.00;;
787;SDS011;16074;42.708;23.312;2023-11-25T03:15:43;2.30;;;2.20;;
787;SDS011;16074;42.708;23.312;2023-11-25T03:18:11;5.07;;;1.98;;
787;SDS011;16074;42.708;23.312;2023-11-25T03:20:39;2.85;;;2.25;;
787;SDS011;16074;42.708;23.312;2023-11-25T03:23:07;2.15;;;2.03;;
787;SDS011;16074;42.708;23.312;2023-11-25T03:25:35;4.25;;;2.10;;
787;SDS011;16074;42.708;23.312;2023-11-25T03:28:06;5.13;;;3.15;;
787;SDS011;16074;42.708;23.312;2023-11-25T03:30:39;3.88;;;2.72;;
787;SDS011;16074;42.708;23.312;2023-11-25T03:33:08;2.20;;;2.00;;
787;SDS011;16074;42.708;23.312;2023-11-25T03:35:37;3.75;;;1.75;;
787;SDS011;16074;42.708;23.312;2023-11-25T03:38:05;1.00;;;1.00;;
787;SDS011;16074;42.708;23.312;2023-11-25T03:40:34;0.95;;;0.95;;
787;SDS011;16074;42.708;23.312;2023-11-25T03:43:02;1.20;;;1.20;;
787;SDS011;16074;42.708;23.312;2023-11-25T03:45:30;1.73;;;1.60;;
787;SDS011;16074;42.708;23.312;2023-11-25T03:48:01;1.83;;;1.58;;
787;SDS011;16074;42.708;23.312;2023-11-25T03:50:29;1.73;;;1.63;;
787;SDS011;16074;42.708;23.312;2023-11-25T03:52:58;2.70;;;1.80;;
787;SDS011;16074;42.708;23.312;2023-11-25T03:55:26;2.92;;;2.72;;
787;SDS011;16074;42.708;23.312;2023-11-25T03:57:54;6.55;;;3.00;;
787;SDS011;16074;42.708;23.312;2023-11-25T04:00:22;4.10;;;2.40;;
787;SDS011;16074;42.708;23.312;2023-11-25T04:02:50;2.65;;;2.45;;
787;SDS011;16074;42.708;23.312;2023-11-25T04:05:21;2.55;;;2.42;;
787;SDS011;16074;42.708;23.312;2023-11-25T04:07:50;2.58;;;2.40;;
787;SDS011;16074;42.708;23.312;2023-11-25T04:10:19;2.17;;;2.08;;
787;SDS011;16074;42.708;23.312;2023-11-25T04:12:47;2.83;;;2.30;;
787;SDS011;16074;42.708;23.312;2023-11-25T04:15:18;3.70;;;3.40;;
787;SDS011;16074;42.708;23.312;2023-11-25T04:17:47;2.35;;;2.25;;
787;SDS011;16074;42.708;23.312;2023-11-25T04:20:18;2.70;;;2.50;;
787;SDS011;16074;42.708;23.312;2023-11-25T04:22:54;3.28;;;2.13;;
787;SDS011;16074;42.708;23.312;2023-11-25T04:25:24;2.67;;;2.38;;
787;SDS011;16074;42.708;23.312;2023-11-25T04:27:53;3.38;;;3.00;;
787;SDS011;16074;42.708;23.312;2023-11-25T04:30:21;2.08;;;1.92;;
787;SDS011;16074;42.708;23.312;2023-11-25T04:32:49;3.95;;;2.17;;
787;SDS011;16074;42.708;23.312;2023-11-25T04:35:18;2.22;;;2.05;;
787;SDS011;16074;42.708;23.312;2023-11-25T04:37:46;3.22;;;3.03;;
787;SDS011;16074;42.708;23.312;2023-11-25T04:40:16;2.05;;;1.95;;
787;SDS011;16074;42.708;23.312;2023-11-25T04:42:45;1.83;;;1.73;;
787;SDS011;16074;42.708;23.312;2023-11-25T04:45:13;1.75;;;1.65;;
787;SDS011;16074;42.708;23.312;2023-11-25T04:47:44;1.25;;;1.25;;
787;SDS011;16074;42.708;23.312;2023-11-25T04:50:14;2.08;;;1.65;;
787;SDS011;16074;42.708;23.312;2023-11-25T04:52:43;3.17;;;1.80;;
787;SDS011;16074;42.708;23.312;2023-11-25T04:55:11;1.55;;;1.45;;
787;SDS011;16074;42.708;23.312;2023-11-25T04:57:42;0.90;;;0.90;;
787;SDS011;16074;42.708;23.312;2023-11-25T05:00:12;1.90;;;1.38;;
787;SDS011;16074;42.708;23.312;2023-11-25T05:02:41;1.60;;;1.52;;
787;SDS011;16074;42.708;23.312;2023-11-25T05:05:10;3.40;;;1.20;;
787;SDS011;16074;42.708;23.312;2023-11-25T05:07:40;1.85;;;1.75;;
787;SDS011;16074;42.708;23.312;2023-11-25T05:10:09;1.60;;;1.50;;
787;SDS011;16074;42.708;23.312;2023-11-25T05:12:38;1.40;;;1.30;;
787;SDS011;16074;42.708;23.312;2023-11-25T05:15:10;1.42;;;1.40;;
787;SDS011;16074;42.708;23.312;2023-11-25T05:17:39;2.33;;;1.83;;
787;SDS011;16074;42.708;23.312;2023-11-25T05:20:07;1.15;;;1.15;;
787;SDS011;16074;42.708;23.312;2023-11-25T05:22:42;1.40;;;1.35;;
787;SDS011;16074;42.708;23.312;2023-11-25T05:25:11;1.40;;;1.30;;
787;SDS011;16074;42.708;23.312;2023-11-25T05:27:40;1.63;;;1.52;;
787;SDS011;16074;42.708;23.312;2023-11-25T05:30:09;1.50;;;1.40;;
787;SDS011;16074;42.708;23.312;2023-11-25T05:32:41;1.50;;;1.40;;
787;SDS011;16074;42.708;23.312;2023-11-25T05:35:10;1.05;;;0.95;;
787;SDS011;16074;42.708;23.312;2023-11-25T05:37:40;1.20;;;1.20;;
787;SDS011;16074;42.708;23.312;2023-11-25T05:40:11;1.20;;;1.20;;
787;SDS011;16074;42.708;23.312;2023-11-25T05:42:41;0.80;;;0.80;;
787;SDS011;16074;42.708;23.312;2023-11-25T05:45:17;0.80;;;0.80;;
787;SDS011;16074;42.708;23.312;2023-11-25T05:47:47;0.95;;;0.95;;
787;SDS011;16074;42.708;23.312;2023-11-25T05:50:17;0.75;;;0.75;;
787;SDS011;16074;42.708;23.312;2023-11-25T05:52:48;0.70;;;0.70;;
787;SDS011;16074;42.708;23.312;2023-11-25T05:55:17;1.58;;;0.93;;
787;SDS011;16074;42.708;23.312;2023-11-25T05:57:47;1.27;;;1.17;;
787;SDS011;16074;42.708;23.312;2023-11-25T06:00:20;1.20;;;1.20;;
787;SDS011;16074;42.708;23.312;2023-11-25T06:02:50;0.85;;;0.85;;
787;SDS011;16074;42.708;23.312;2023-11-25T06:05:20;1.65;;;1.52;;
787;SDS011;16074;42.708;23.312;2023-11-25T06:07:48;0.88;;;0.88;;
787;SDS011;16074;42.708;23.312;2023-11-25T06:10:16;0.90;;;0.90;;
787;SDS011;16074;42.708;23.312;2023-11-25T06:12:46;0.90;;;0.90;;
787;SDS011;16074;42.708;23.312;2023-11-25T06:15:14;2.97;;;2.38;;
787;SDS011;16074;42.708;23.312;2023-11-25T06:17:44;1.80;;;1.33;;
787;SDS011;16074;42.708;23.312;2023-11-25T06:20:13;1.42;;;1.33;;
787;SDS011;16074;42.708;23.312;2023-11-25T06:22:42;0.88;;;0.88;;
787;SDS011;16074;42.708;23.312;2023-11-25T06:25:10;1.08;;;1.05;;
787;SDS011;16074;42.708;23.312;2023-11-25T06:27:38;1.27;;;1.23;;
787;SDS011;16074;42.708;23.312;2023-11-25T06:30:07;1.60;;;1.60;;
787;SDS011;16074;42.708;23.312;2023-11-25T06:32:36;1.85;;;1.75;;
787;SDS011;16074;42.708;23.312;2023-11-25T06:35:06;4.18;;;2.20;;
787;SDS011;16074;42.708;23.312;2023-11-25T06:37:36;1.55;;;1.45;;
787;SDS011;16074;42.708;23.312;2023-11-25T06:40:07;1.55;;;1.45;;
787;SDS011;16074;42.708;23.312;2023-11-25T06:42:39;5.20;;;4.65;;
787;SDS011;16074;42.708;23.312;2023-11-25T06:45:11;9.30;;;8.43;;
787;SDS011;16074;42.708;23.312;2023-11-25T06:47:41;4.32;;;3.95;;
787;SDS011;16074;42.708;23.312;2023-11-25T06:50:11;3.50;;;3.20;;
787;SDS011;16074;42.708;23.312;2023-11-25T06:52:39;12.70;;;10.63;;
787;SDS011;16074;42.708;23.312;2023-11-25T06:55:08;13.63;;;11.38;;
787;SDS011;16074;42.708;23.312;2023-11-25T06:57:37;16.05;;;11.98;;
787;SDS011;16074;42.708;23.312;2023-11-25T07:00:07;15.43;;;12.45;;
787;SDS011;16074;42.708;23.312;2023-11-25T07:02:38;29.45;;;25.15;;
787;SDS011;16074;42.708;23.312;2023-11-25T07:05:07;19.38;;;17.38;;
787;SDS011;16074;42.708;23.312;2023-11-25T07:07:37;9.38;;;8.52;;
787;SDS011;16074;42.708;23.312;2023-11-25T07:10:06;12.65;;;11.30;;
787;SDS011;16074;42.708;23.312;2023-11-25T07:12:37;24.92;;;21.05;;
787;SDS011;16074;42.708;23.312;2023-11-25T07:15:06;11.25;;;10.02;;
787;SDS011;16074;42.708;23.312;2023-11-25T07:17:34;11.77;;;9.70;;
787;SDS011;16074;42.708;23.312;2023-11-25T07:20:04;19.48;;;16.25;;
787;SDS011;16074;42.708;23.312;2023-11-25T07:22:40;11.32;;;10.10;;
787;SDS011;16074;42.708;23.312;2023-11-25T07:25:09;24.75;;;19.25;;
787;SDS011;16074;42.708;23.312;2023-11-25T07:27:39;7.53;;;6.25;;
787;SDS011;16074;42.708;23.312;2023-11-25T07:30:08;7.50;;;6.78;;
787;SDS011;16074;42.708;23.312;2023-11-25T07:32:37;9.30;;;8.35;;
787;SDS011;16074;42.708;23.312;2023-11-25T07:35:05;12.90;;;11.70;;
787;SDS011;16074;42.708;23.312;2023-11-25T07:37:34;7.85;;;7.05;;
787;SDS011;16074;42.708;23.312;2023-11-25T07:40:05;7.20;;;6.50;;
787;SDS011;16074;42.708;23.312;2023-11-25T07:42:36;7.10;;;5.60;;
787;SDS011;16074;42.708;23.312;2023-11-25T07:45:05;5.22;;;4.72;;
787;SDS011;16074;42.708;23.312;2023-11-25T07:47:36;8.20;;;6.40;;
787;SDS011;16074;42.708;23.312;2023-11-25T07:50:05;7.65;;;6.63;;
787;SDS011;16074;42.708;23.312;2023-11-25T07:52:33;8.15;;;6.78;;
787;SDS011;16074;42.708;23.312;2023-11-25T07:55:02;5.80;;;5.22;;
787;SDS011;16074;42.708;23.312;2023-11-25T07:57:32;7.60;;;5.55;;
787;SDS011;16074;42.708;23.312;2023-11-25T08:00:00;4.10;;;3.70;;
787;SDS011;16074;42.708;23.312;2023-11-25T08:02:37;8.77;;;5.32;;
787;SDS011;16074;42.708;23.312;2023-11-25T08:05:06;6.60;;;6.00;;
787;SDS011;16074;42.708;23.312;2023-11-25T08:07:35;7.18;;;6.53;;
787;SDS011;16074;42.708;23.312;2023-11-25T08:10:03;6.53;;;5.90;;
787;SDS011;16074;42.708;23.312;2023-11-25T08:12:35;6.10;;;5.53;;
787;SDS011;16074;42.708;23.312;2023-11-25T08:15:04;5.25;;;4.85;;
787;SDS011;16074;42.708;23.312;2023-11-25T08:17:32;11.02;;;8.52;;
787;SDS011;16074;42.708;23.312;2023-11-25T08:20:01;6.15;;;5.55;;
787;SDS011;16074;42.708;23.312;2023-11-25T08:22:29;10.68;;;6.65;;
787;SDS011;16074;42.708;23.312;2023-11-25T08:24:57;6.30;;;5.75;;
787;SDS011;16074;42.708;23.312;2023-11-25T08:27:31;5.40;;;4.82;;
787;SDS011;16074;42.708;23.312;2023-11-25T08:30:01;6.50;;;5.90;;
787;SDS011;16074;42.708;23.312;2023-11-25T08:32:30;5.93;;;5.40;;
787;SDS011;16074;42.708;23.312;2023-11-25T08:34:58;9.18;;;6.75;;
787;SDS011;16074;42.708;23.312;2023-11-25T08:37:27;7.15;;;6.45;;
787;SDS011;16074;42.708;23.312;2023-11-25T08:39:55;10.20;;;9.13;;
787;SDS011;16074;42.708;23.312;2023-11-25T08:42:25;11.13;;;10.00;;
787;SDS011;16074;42.708;23.312;2023-11-25T08:44:55;10.02;;;7.93;;
787;SDS011;16074;42.708;23.312;2023-11-25T08:47:25;10.00;;;9.00;;
787;SDS011;16074;42.708;23.312;2023-11-25T08:49:53;12.10;;;9.82;;
787;SDS011;16074;42.708;23.312;2023-11-25T08:52:23;9.52;;;8.63;;
787;SDS011;16074;42.708;23.312;2023-11-25T08:54:54;8.85;;;8.07;;
787;SDS011;16074;42.708;23.312;2023-11-25T08:57:22;9.70;;;8.18;;
787;SDS011;16074;42.708;23.312;2023-11-25T08:59:50;9.20;;;8.40;;
787;SDS011;16074;42.708;23.312;2023-11-25T09:02:18;7.53;;;6.78;;
787;SDS011;16074;42.708;23.312;2023-11-25T09:04:51;7.30;;;6.60;;
787;SDS011;16074;42.708;23.312;2023-11-25T09:07:34;8.25;;;7.45;;
787;SDS011;16074;42.708;23.312;2023-11-25T09:10:05;9.00;;;8.10;;
787;SDS011;16074;42.708;23.312;2023-11-25T09:12:34;9.85;;;8.85;;
787;SDS011;16074;42.708;23.312;2023-11-25T09:15:03;12.50;;;8.93;;
787;SDS011;16074;42.708;23.312;2023-11-25T09:17:34;10.40;;;9.20;;
787;SDS011;16074;42.708;23.312;2023-11-25T09:20:07;12.60;;;11.30;;
787;SDS011;16074;42.708;23.312;2023-11-25T09:22:39;13.90;;;11.85;;
787;SDS011;16074;42.708;23.312;2023-11-25T09:25:08;12.05;;;10.80;;
787;SDS011;16074;42.708;23.312;2023-11-25T09:27:38;12.02;;;10.45;;
787;SDS011;16074;42.708;23.312;2023-11-25T09:30:07;11.40;;;10.20;;
787;SDS011;16074;42.708;23.312;2023-11-25T09:32:38;15.63;;;12.90;;
787;SDS011;16074;42.708;23.312;2023-11-25T09:35:09;10.63;;;9.63;;
787;SDS011;16074;42.708;23.312;2023-11-25T09:37:38;7.72;;;7.07;;
787;SDS011;16074;42.708;23.312;2023-11-25T09:40:07;12.10;;;10.45;;
787;SDS011;16074;42.708;23.312;2023-11-25T09:42:41;11.02;;;8.60;;
787;SDS011;16074;42.708;23.312;2023-11-25T09:45:10;6.32;;;5.70;;
787;SDS011;16074;42.708;23.312;2023-11-25T09:47:40;5.38;;;4.68;;
787;SDS011;16074;42.708;23.312;2023-11-25T09:50:13;4.90;;;4.40;;
787;SDS011;16074;42.708;23.312;2023-11-25T09:52:42;6.28;;;5.68;;
787;SDS011;16074;42.708;23.312;2023-11-25T09:55:16;6.70;;;6.15;;
787;SDS011;16074;42.708;23.312;2023-11-25T09:57:45;7.50;;;6.90;;
787;SDS011;16074;42.708;23.312;2023-11-25T10:00:17;6.20;;;5.60;;
787;SDS011;16074;42.708;23.312;2023-11-25T10:02:50;9.13;;;5.82;;
787;SDS011;16074;42.708;23.312;2023-11-25T10:05:21;8.48;;;6.30;;
787;SDS011;16074;42.708;23.312;2023-11-25T10:07:49;8.70;;;7.82;;
787;SDS011;16074;42.708;23.312;2023-11-25T10:10:18;8.43;;;7.10;;
787;SDS011;16074;42.708;23.312;2023-11-25T10:12:51;9.77;;;7.82;;
787;SDS011;16074;42.708;23.312;2023-11-25T10:15:19;13.43;;;9.88;;
787;SDS011;16074;42.708;23.312;2023-11-25T10:17:48;10.52;;;9.52;;
787;SDS011;16074;42.708;23.312;2023-11-25T10:20:17;16.58;;;10.75;;
787;SDS011;16074;42.708;23.312;2023-11-25T10:22:49;15.20;;;12.27;;
787;SDS011;16074;42.708;23.312;2023-11-25T10:25:20;16.65;;;13.02;;
787;SDS011;16074;42.708;23.312;2023-11-25T10:27:49;14.48;;;11.38;;
787;SDS011;16074;42.708;23.312;2023-11-25T10:30:19;12.70;;;11.35;;
787;SDS011;16074;42.708;23.312;2023-11-25T10:32:49;13.07;;;11.70;;
787;SDS011;16074;42.708;23.312;2023-11-25T10:35:21;13.23;;;11.82;;
787;SDS011;16074;42.708;23.312;2023-11-25T10:37:53;12.73;;;11.52;;
787;SDS011;16074;42.708;23.312;2023-11-25T10:40:21;13.63;;;12.23;;
787;SDS011;16074;42.708;23.312;2023-11-25T10:42:52;16.50;;;13.63;;
787;SDS011;16074;42.708;23.312;2023-11-25T10:45:21;16.30;;;14.70;;
787;SDS011;16074;42.708;23.312;2023-11-25T10:47:53;14.45;;;12.75;;
787;SDS011;16074;42.708;23.312;2023-11-25T10:50:23;13.40;;;11.98;;
787;SDS011;16074;42.708;23.312;2023-11-25T10:52:54;13.93;;;11.85;;
787;SDS011;16074;42.708;23.312;2023-11-25T10:55:25;13.15;;;11.70;;
787;SDS011;16074;42.708;23.312;2023-11-25T10:57:53;13.40;;;10.60;;
787;SDS011;16074;42.708;23.312;2023-11-25T11:00:26;12.55;;;11.30;;
787;SDS011;16074;42.708;23.312;2023-11-25T11:02:56;11.50;;;10.15;;
787;SDS011;16074;42.708;23.312;2023-11-25T11:05:31;12.65;;;10.60;;
787;SDS011;16074;42.708;23.312;2023-11-25T11:08:06;17.23;;;14.27;;
787;SDS011;16074;42.708;23.312;2023-11-25T11:10:37;16.25;;;12.70;;
787;SDS011;16074;42.708;23.312;2023-11-25T11:13:14;15.68;;;14.07;;
787;SDS011;16074;42.708;23.312;2023-11-25T11:15:49;13.80;;;12.30;;
787;SDS011;16074;42.708;23.312;2023-11-25T11:18:23;16.13;;;14.10;;
787;SDS011;16074;42.708;23.312;2023-11-25T11:20:53;13.27;;;11.43;;
787;SDS011;16074;42.708;23.312;2023-11-25T11:23:27;16.55;;;13.25;;
787;SDS011;16074;42.708;23.312;2023-11-25T11:26:01;12.60;;;11.27;;
787;SDS011;16074;42.708;23.312;2023-11-25T11:28:41;12.80;;;10.63;;
787;SDS011;16074;42.708;23.312;2023-11-25T11:34:24;14.93;;;12.10;;
787;SDS011;16074;42.708;23.312;2023-11-25T11:36:54;12.55;;;11.25;;
787;SDS011;16074;42.708;23.312;2023-11-25T11:39:34;17.85;;;13.93;;
787;SDS011;16074;42.708;23.312;2023-11-25T11:42:24;21.50;;;15.95;;
787;SDS011;16074;42.708;23.312;2023-11-25T11:44:58;20.38;;;17.85;;
787;SDS011;16074;42.708;23.312;2023-11-25T11:47:38;21.08;;;16.02;;
787;SDS011;16074;42.708;23.312;2023-11-25T11:50:07;22.60;;;19.05;;
787;SDS011;16074;42.708;23.312;2023-11-25T11:52:45;16.15;;;14.10;;
787;SDS011;16074;42.708;23.312;2023-11-25T11:55:36;12.38;;;10.80;;
787;SDS011;16074;42.708;23.312;2023-11-25T11:58:06;12.35;;;11.10;;
787;SDS011;16074;42.708;23.312;2023-11-25T12:00:36;12.80;;;11.00;;
787;SDS011;16074;42.708;23.312;2023-11-25T12:03:06;11.65;;;10.25;;
787;SDS011;16074;42.708;23.312;2023-11-25T12:05:36;11.45;;;9.52;;
787;SDS011;16074;42.708;23.312;2023-11-25T12:08:04;13.20;;;10.73;;
787;SDS011;16074;42.708;23.312;2023-11-25T12:10:33;13.07;;;11.38;;
787;SDS011;16074;42.708;23.312;2023-11-25T12:13:02;14.90;;;12.88;;
787;SDS011;16074;42.708;23.312;2023-11-25T12:15:31;18.50;;;14.75;;
787;SDS011;16074;42.708;23.312;2023-11-25T12:17:59;15.25;;;12.50;;
787;SDS011;16074;42.708;23.312;2023-11-25T12:20:28;14.30;;;12.88;;
787;SDS011;16074;42.708;23.312;2023-11-25T12:22:57;18.95;;;15.93;;
787;SDS011;16074;42.708;23.312;2023-11-25T12:25:35;19.10;;;14.95;;
787;SDS011;16074;42.708;23.312;2023-11-25T12:28:06;20.48;;;15.88;;
787;SDS011;16074;42.708;23.312;2023-11-25T12:30:36;19.42;;;15.00;;
787;SDS011;16074;42.708;23.312;2023-11-25T12:33:04;14.50;;;11.82;;
787;SDS011;16074;42.708;23.312;2023-11-25T12:35:34;14.63;;;13.23;;
787;SDS011;16074;42.708;23.312;2023-11-25T12:38:02;11.85;;;10.63;;
787;SDS011;16074;42.708;23.312;2023-11-25T12:40:42;14.13;;;11.88;;
787;SDS011;16074;42.708;23.312;2023-11-25T12:43:13;15.52;;;12.82;;
787;SDS011;16074;42.708;23.312;2023-11-25T12:45:43;16.60;;;14.05;;
787;SDS011;16074;42.708;23.312;2023-11-25T12:48:13;19.80;;;16.23;;
787;SDS011;16074;42.708;23.312;2023-11-25T12:50:59;22.52;;;16.13;;
787;SDS011;16074;42.708;23.312;2023-11-25T12:53:30;20.58;;;15.88;;
787;SDS011;16074;42.708;23.312;2023-11-25T12:55:58;18.08;;;14.15;;
787;SDS011;16074;42.708;23.312;2023-11-25T12:58:29;16.70;;;13.90;;
787;SDS011;16074;42.708;23.312;2023-11-25T13:00:58;15.80;;;13.02;;
787;SDS011;16074;42.708;23.312;2023-11-25T13:03:26;18.02;;;14.38;;
787;SDS011;16074;42.708;23.312;2023-11-25T13:05:58;15.93;;;12.73;;
787;SDS011;16074;42.708;23.312;2023-11-25T13:08:28;16.60;;;13.02;;
787;SDS011;16074;42.708;23.312;2023-11-25T13:11:00;20.63;;;13.48;;
787;SDS011;16074;42.708;23.312;2023-11-25T13:13:32;14.50;;;13.00;;
787;SDS011;16074;42.708;23.312;2023-11-25T13:16:01;27.13;;;16.92;;
787;SDS011;16074;42.708;23.312;2023-11-25T13:18:31;25.42;;;15.75;;
787;SDS011;16074;42.708;23.312;2023-11-25T13:21:00;20.45;;;15.30;;
787;SDS011;16074;42.708;23.312;2023-11-25T13:23:31;16.83;;;13.63;;
787;SDS011;16074;42.708;23.312;2023-11-25T13:26:00;19.00;;;16.27;;
787;SDS011;16074;42.708;23.312;2023-11-25T13:28:28;27.45;;;19.77;;
787;SDS011;16074;42.708;23.312;2023-11-25T13:30:58;25.73;;;20.00;;
787;SDS011;16074;42.708;23.312;2023-11-25T13:33:26;28.65;;;21.15;;
787;SDS011;16074;42.708;23.312;2023-11-25T13:35:54;35.05;;;22.85;;
787;SDS011;16074;42.708;23.312;2023-11-25T13:38:22;30.55;;;22.55;;
787;SDS011;16074;42.708;23.312;2023-11-25T13:40:51;30.65;;;22.92;;
787;SDS011;16074;42.708;23.312;2023-11-25T13:43:19;37.05;;;24.92;;
787;SDS011;16074;42.708;23.312;2023-11-25T13:45:47;49.08;;;34.10;;
787;SDS011;16074;42.708;23.312;2023-11-25T13:48:17;37.70;;;28.35;;
787;SDS011;16074;42.708;23.312;2023-11-25T13:50:45;45.33;;;28.85;;
787;SDS011;16074;42.708;23.312;2023-11-25T13:53:13;34.70;;;25.88;;
787;SDS011;16074;42.708;23.312;2023-11-25T13:55:45;39.13;;;27.85;;
787;SDS011;16074;42.708;23.312;2023-11-25T13:58:16;39.90;;;26.73;;
787;SDS011;16074;42.708;23.312;2023-11-25T14:00:44;31.08;;;23.40;;
787;SDS011;16074;42.708;23.312;2023-11-25T14:03:12;35.47;;;24.70;;
787;SDS011;16074;42.708;23.312;2023-11-25T14:05:43;38.33;;;26.70;;
787;SDS011;16074;42.708;23.312;2023-11-25T14:08:12;32.45;;;24.20;;
787;SDS011;16074;42.708;23.312;2023-11-25T14:10:44;29.13;;;19.73;;
787;SDS011;16074;42.708;23.312;2023-11-25T14:13:13;23.52;;;18.50;;
787;SDS011;16074;42.708;23.312;2023-11-25T14:15:42;27.52;;;20.08;;
787;SDS011;16074;42.708;23.312;2023-11-25T14:18:10;26.73;;;20.73;;
787;SDS011;16074;42.708;23.312;2023-11-25T14:20:39;24.75;;;17.75;;
787;SDS011;16074;42.708;23.312;2023-11-25T14:23:08;28.60;;;21.90;;
787;SDS011;16074;42.708;23.312;2023-11-25T14:25:37;32.95;;;22.15;;
787;SDS011;16074;42.708;23.312;2023-11-25T14:28:05;38.95;;;28.65;;
787;SDS011;16074;42.708;23.312;2023-11-25T14:30:34;32.10;;;25.27;;
787;SDS011;16074;42.708;23.312;2023-11-25T14:33:03;35.70;;;24.70;;
787;SDS011;16074;42.708;23.312;2023-11-25T14:35:32;58.08;;;32.70;;
787;SDS011;16074;42.708;23.312;2023-11-25T14:38:00;38.28;;;25.50;;
787;SDS011;16074;42.708;23.312;2023-11-25T14:40:32;25.00;;;18.77;;
787;SDS011;16074;42.708;23.312;2023-11-25T14:43:05;35.38;;;25.35;;
787;SDS011;16074;42.708;23.312;2023-11-25T14:45:34;37.22;;;21.52;;
787;SDS011;16074;42.708;23.312;2023-11-25T14:48:02;33.55;;;23.58;;
787;SDS011;16074;42.708;23.312;2023-11-25T14:50:31;36.60;;;24.98;;
787;SDS011;16074;42.708;23.312;2023-11-25T14:53:04;35.50;;;25.25;;
787;SDS011;16074;42.708;23.312;2023-11-25T14:55:34;29.02;;;19.98;;
787;SDS011;16074;42.708;23.312;2023-11-25T14:58:02;40.10;;;25.20;;
787;SDS011;16074;42.708;23.312;2023-11-25T15:00:31;24.63;;;18.40;;
787;SDS011;16074;42.708;23.312;2023-11-25T15:02:59;25.60;;;19.52;;
787;SDS011;16074;42.708;23.312;2023-11-25T15:05:27;24.95;;;18.05;;
787;SDS011;16074;42.708;23.312;2023-11-25T15:07:56;18.02;;;13.40;;
787;SDS011;16074;42.708;23.312;2023-11-25T15:10:24;19.67;;;13.45;;